createdAt,value
2022-12-03T00:42:39.862Z,57.50
2022-12-03T01:04:26.127Z,51.30
2022-12-03T01:26:12.310Z,53.70
2022-12-03T01:47:58.519Z,54.20
2022-12-03T02:09:44.360Z,57.10
2022-12-03T02:31:31.495Z,53.90
2022-12-03T02:53:23.112Z,57.00
2022-12-03T03:15:12.677Z,48.10
2022-12-03T03:36:58.881Z,50.60
2022-12-03T03:58:44.854Z,47.80
2022-12-03T04:20:30.609Z,54.10
2022-12-03T04:42:16.440Z,49.60
2022-12-03T05:25:48.661Z,54.30
2022-12-03T06:09:22.476Z,57.40
2022-12-03T06:31:11.020Z,64.50
2022-12-03T06:52:59.160Z,55.70
2022-12-03T07:14:44.935Z,55.10
2022-12-03T07:36:30.800Z,61.20
2022-12-03T08:20:02.963Z,61.70
2022-12-03T08:42:13.880Z,55.10
2022-12-03T09:04:15.672Z,60.60
2022-12-03T09:26:01.998Z,64.30
2022-12-03T09:47:50.231Z,66.80
2022-12-03T10:09:36.345Z,64.60
2022-12-03T10:31:36.260Z,67.80
2022-12-03T10:53:24.216Z,68.10
2022-12-03T11:15:17.388Z,68.10
2022-12-03T11:37:30.510Z,68.80
2022-12-03T11:59:16.889Z,68.10
2022-12-03T12:21:33.528Z,75.30
2022-12-03T12:43:27.775Z,75.70
2022-12-03T13:05:15.733Z,82.80
2022-12-03T13:27:09.959Z,73.90
2022-12-03T13:49:00.419Z,65.30
2022-12-03T14:10:47.990Z,68.90
2022-12-03T14:32:33.824Z,59.20
2022-12-03T14:54:27.064Z,63.80
2022-12-03T15:16:13.114Z,63.00
2022-12-03T15:37:59.855Z,56.40
2022-12-03T15:59:46.257Z,63.40
2022-12-03T16:21:37.385Z,67.50
2022-12-03T16:43:23.587Z,66.50
2022-12-03T17:05:12.368Z,73.50
2022-12-03T17:26:58.274Z,70.20
2022-12-03T17:48:47.126Z,72.20
2022-12-03T18:10:35.435Z,82.80
2022-12-03T18:32:28.961Z,77.60
2022-12-03T18:54:15.900Z,84.90
2022-12-03T19:16:04.428Z,84.20
2022-12-03T19:37:50.395Z,95.60
2022-12-03T19:59:36.886Z,83.80
2022-12-03T20:21:22.976Z,87.80
2022-12-03T20:43:08.824Z,96.10
2022-12-03T21:04:56.139Z,94.80
2022-12-03T21:26:42.158Z,85.70
2022-12-03T21:48:27.952Z,97.70
2022-12-03T22:10:14.788Z,95.90
2022-12-03T22:32:00.692Z,89.90
2022-12-03T22:53:46.576Z,93.40
2022-12-03T23:15:32.691Z,84.40
2022-12-03T23:37:19.126Z,86.30
2022-12-03T23:59:04.873Z,90.00
